sensor_id;sensor_type;location;lat;lon;timestamp;pressure;altitude;pressure_sealevel;temperature;humidity
22649;BME280;11491;41.942;24.220;2024-03-07T00:01:49;89659.19;;;5.17;85.82
22649;BME280;11491;41.942;24.220;2024-03-07T00:04:15;89655.13;;;5.11;86.32
22649;BME280;11491;41.942;24.220;2024-03-07T00:06:42;89647.53;;;5.01;86.25
22649;BME280;11491;41.942;24.220;2024-03-07T00:09:09;89641.44;;;4.91;86.29
22649;BME280;11491;41.942;24.220;2024-03-07T00:11:36;89644.09;;;4.91;86.00
22649;BME280;11491;41.942;24.220;2024-03-07T00:14:03;89638.06;;;4.82;86.33
22649;BME280;11491;41.942;24.220;2024-03-07T00:16:31;89640.50;;;4.96;85.71
22649;BME280;11491;41.942;24.220;2024-03-07T00:19:00;89644.56;;;4.93;85.53
22649;BME280;11491;41.942;24.220;2024-03-07T00:21:27;89638.34;;;4.98;86.14
22649;BME280;11491;41.942;24.220;2024-03-07T00:23:54;89643.78;;;4.84;86.19
22649;BME280;11491;41.942;24.220;2024-03-07T00:26:20;89645.69;;;4.75;86.11
22649;BME280;11491;41.942;24.220;2024-03-07T00:28:47;89641.94;;;4.76;86.75
22649;BME280;11491;41.942;24.220;2024-03-07T00:31:14;89645.69;;;4.75;86.79
22649;BME280;11491;41.942;24.220;2024-03-07T00:33:42;89640.72;;;4.65;86.96
22649;BME280;11491;41.942;24.220;2024-03-07T00:36:10;89642.75;;;4.59;86.20
22649;BME280;11491;41.942;24.220;2024-03-07T00:38:37;89645.41;;;4.33;86.65
22649;BME280;11491;41.942;24.220;2024-03-07T00:41:04;89643.53;;;4.07;89.14
22649;BME280;11491;41.942;24.220;2024-03-07T00:43:31;89629.53;;;3.98;90.21
22649;BME280;11491;41.942;24.220;2024-03-07T00:45:57;89639.94;;;3.86;91.19
22649;BME280;11491;41.942;24.220;2024-03-07T00:48:24;89631.22;;;3.85;91.36
22649;BME280;11491;41.942;24.220;2024-03-07T00:50:51;89636.84;;;3.93;91.78
22649;BME280;11491;41.942;24.220;2024-03-07T00:53:19;89635.28;;;4.09;91.62
22649;BME280;11491;41.942;24.220;2024-03-07T00:55:46;89633.56;;;4.22;91.25
22649;BME280;11491;41.942;24.220;2024-03-07T00:58:12;89630.00;;;4.35;90.16
22649;BME280;11491;41.942;24.220;2024-03-07T01:00:39;89631.84;;;4.35;89.71
22649;BME280;11491;41.942;24.220;2024-03-07T01:03:08;89627.97;;;4.32;90.70
22649;BME280;11491;41.942;24.220;2024-03-07T01:05:36;89635.47;;;4.30;89.82
22649;BME280;11491;41.942;24.220;2024-03-07T01:08:04;89637.94;;;4.35;89.45
22649;BME280;11491;41.942;24.220;2024-03-07T01:10:33;89634.19;;;4.36;88.94
22649;BME280;11491;41.942;24.220;2024-03-07T01:13:00;89639.03;;;4.34;88.67
22649;BME280;11491;41.942;24.220;2024-03-07T01:15:27;89632.03;;;4.38;89.33
22649;BME280;11491;41.942;24.220;2024-03-07T01:17:54;89637.63;;;4.45;88.90
22649;BME280;11491;41.942;24.220;2024-03-07T01:20:21;89627.78;;;4.54;89.15
22649;BME280;11491;41.942;24.220;2024-03-07T01:22:50;89637.31;;;4.56;88.84
22649;BME280;11491;41.942;24.220;2024-03-07T01:25:17;89641.34;;;4.62;88.28
22649;BME280;11491;41.942;24.220;2024-03-07T01:27:45;89627.16;;;4.75;87.42
22649;BME280;11491;41.942;24.220;2024-03-07T01:30:12;89633.53;;;4.74;87.65
22649;BME280;11491;41.942;24.220;2024-03-07T01:32:39;89634.16;;;4.71;88.59
22649;BME280;11491;41.942;24.220;2024-03-07T01:35:06;89628.53;;;4.81;87.83
22649;BME280;11491;41.942;24.220;2024-03-07T01:37:33;89631.06;;;4.69;88.33
22649;BME280;11491;41.942;24.220;2024-03-07T01:40:00;89628.25;;;4.83;87.90
22649;BME280;11491;41.942;24.220;2024-03-07T01:42:30;89617.94;;;4.81;87.62
22649;BME280;11491;41.942;24.220;2024-03-07T01:44:58;89630.38;;;4.89;87.92
22649;BME280;11491;41.942;24.220;2024-03-07T01:47:25;89623.19;;;4.99;87.45
22649;BME280;11491;41.942;24.220;2024-03-07T01:49:52;89618.53;;;4.95;87.27
22649;BME280;11491;41.942;24.220;2024-03-07T01:52:19;89610.75;;;4.90;87.56
22649;BME280;11491;41.942;24.220;2024-03-07T01:54:47;89607.63;;;4.97;87.77
22649;BME280;11491;41.942;24.220;2024-03-07T01:57:16;89611.03;;;5.06;87.53
22649;BME280;11491;41.942;24.220;2024-03-07T01:59:43;89614.00;;;5.05;86.76
22649;BME280;11491;41.942;24.220;2024-03-07T02:02:12;89613.84;;;5.10;86.75
22649;BME280;11491;41.942;24.220;2024-03-07T02:04:39;89614.44;;;5.07;87.07
22649;BME280;11491;41.942;24.220;2024-03-07T02:07:05;89615.47;;;4.76;88.20
22649;BME280;11491;41.942;24.220;2024-03-07T02:09:35;89619.34;;;4.87;89.22
22649;BME280;11491;41.942;24.220;2024-03-07T02:12:02;89613.28;;;4.78;88.82
22649;BME280;11491;41.942;24.220;2024-03-07T02:14:29;89618.16;;;4.50;89.85
22649;BME280;11491;41.942;24.220;2024-03-07T02:16:56;89612.41;;;4.30;91.33
22649;BME280;11491;41.942;24.220;2024-03-07T02:19:24;89607.72;;;4.36;91.68
22649;BME280;11491;41.942;24.220;2024-03-07T02:21:52;89604.28;;;4.44;92.07
22649;BME280;11491;41.942;24.220;2024-03-07T02:24:19;89612.38;;;4.57;91.72
22649;BME280;11491;41.942;24.220;2024-03-07T02:26:46;89605.53;;;4.56;91.71
22649;BME280;11491;41.942;24.220;2024-03-07T02:29:13;89598.06;;;4.58;92.00
22649;BME280;11491;41.942;24.220;2024-03-07T02:31:40;89604.75;;;4.64;92.21
22649;BME280;11491;41.942;24.220;2024-03-07T02:34:07;89603.31;;;4.75;92.12
22649;BME280;11491;41.942;24.220;2024-03-07T02:36:33;89608.75;;;4.87;90.37
22649;BME280;11491;41.942;24.220;2024-03-07T02:39:02;89609.19;;;4.89;89.95
22649;BME280;11491;41.942;24.220;2024-03-07T02:41:29;89614.00;;;4.96;89.39
22649;BME280;11491;41.942;24.220;2024-03-07T02:43:57;89615.44;;;4.93;89.64
22649;BME280;11491;41.942;24.220;2024-03-07T02:46:23;89610.13;;;4.93;89.79
22649;BME280;11491;41.942;24.220;2024-03-07T02:48:50;89610.91;;;4.94;89.88
22649;BME280;11491;41.942;24.220;2024-03-07T02:51:17;89612.00;;;4.93;89.37
22649;BME280;11491;41.942;24.220;2024-03-07T02:53:43;89600.81;;;4.87;89.51
22649;BME280;11491;41.942;24.220;2024-03-07T02:56:11;89598.31;;;4.82;90.17
22649;BME280;11491;41.942;24.220;2024-03-07T02:58:38;89602.34;;;4.88;89.66
22649;BME280;11491;41.942;24.220;2024-03-07T03:01:06;89602.69;;;4.78;90.42
22649;BME280;11491;41.942;24.220;2024-03-07T03:03:33;89597.38;;;4.78;90.13
22649;BME280;11491;41.942;24.220;2024-03-07T03:05:59;89601.75;;;4.74;91.33
22649;BME280;11491;41.942;24.220;2024-03-07T03:08:26;89593.63;;;4.79;91.26
22649;BME280;11491;41.942;24.220;2024-03-07T03:10:54;89589.75;;;4.77;91.79
22649;BME280;11491;41.942;24.220;2024-03-07T03:13:23;89594.88;;;4.90;91.19
22649;BME280;11491;41.942;24.220;2024-03-07T03:15:53;89601.72;;;4.91;89.87
22649;BME280;11491;41.942;24.220;2024-03-07T03:18:19;89598.00;;;4.92;89.92
22649;BME280;11491;41.942;24.220;2024-03-07T03:20:46;89610.59;;;4.87;89.50
22649;BME280;11491;41.942;24.220;2024-03-07T03:23:13;89606.16;;;4.52;90.88
22649;BME280;11491;41.942;24.220;2024-03-07T03:25:40;89603.69;;;4.47;91.67
22649;BME280;11491;41.942;24.220;2024-03-07T03:28:08;89610.03;;;4.64;91.86
22649;BME280;11491;41.942;24.220;2024-03-07T03:30:38;89614.09;;;4.61;91.76
22649;BME280;11491;41.942;24.220;2024-03-07T03:33:05;89624.50;;;4.75;92.20
22649;BME280;11491;41.942;24.220;2024-03-07T03:35:32;89624.66;;;4.79;91.95
22649;BME280;11491;41.942;24.220;2024-03-07T03:37:58;89620.13;;;4.79;92.45
22649;BME280;11491;41.942;24.220;2024-03-07T03:40:25;89620.28;;;4.83;92.04
22649;BME280;11491;41.942;24.220;2024-03-07T03:42:52;89620.75;;;4.85;91.63
22649;BME280;11491;41.942;24.220;2024-03-07T03:45:19;89623.06;;;4.86;91.62
22649;BME280;11491;41.942;24.220;2024-03-07T03:47:47;89616.06;;;4.90;91.73
22649;BME280;11491;41.942;24.220;2024-03-07T03:50:14;89624.19;;;4.85;90.99
22649;BME280;11491;41.942;24.220;2024-03-07T03:52:41;89617.97;;;4.64;92.02
22649;BME280;11491;41.942;24.220;2024-03-07T03:55:08;89608.16;;;4.64;91.51
22649;BME280;11491;41.942;24.220;2024-03-07T03:57:38;89618.75;;;4.64;91.84
22649;BME280;11491;41.942;24.220;2024-03-07T04:00:06;89618.91;;;4.68;91.78
22649;BME280;11491;41.942;24.220;2024-03-07T04:02:38;89618.91;;;4.68;92.05
22649;BME280;11491;41.942;24.220;2024-03-07T04:05:08;89618.88;;;4.85;91.31
22649;BME280;11491;41.942;24.220;2024-03-07T04:07:36;89625.88;;;4.90;90.38
22649;BME280;11491;41.942;24.220;2024-03-07T04:10:03;89626.66;;;4.90;90.79
22649;BME280;11491;41.942;24.220;2024-03-07T04:12:32;89628.22;;;4.91;89.96
22649;BME280;11491;41.942;24.220;2024-03-07T04:14:59;89619.53;;;4.82;90.66
22649;BME280;11491;41.942;24.220;2024-03-07T04:17:26;89608.91;;;4.82;91.85
22649;BME280;11491;41.942;24.220;2024-03-07T04:19:53;89613.59;;;4.85;92.16
22649;BME280;11491;41.942;24.220;2024-03-07T04:22:21;89599.88;;;4.92;91.62
22649;BME280;11491;41.942;24.220;2024-03-07T04:24:48;89607.19;;;4.86;91.44
22649;BME280;11491;41.942;24.220;2024-03-07T04:27:19;89604.88;;;4.76;91.60
22649;BME280;11491;41.942;24.220;2024-03-07T04:29:47;89612.94;;;4.88;91.46
22649;BME280;11491;41.942;24.220;2024-03-07T04:32:14;89607.81;;;4.92;92.32
22649;BME280;11491;41.942;24.220;2024-03-07T04:34:43;89613.06;;;5.01;90.77
22649;BME280;11491;41.942;24.220;2024-03-07T04:37:10;89615.56;;;5.06;90.49
22649;BME280;11491;41.942;24.220;2024-03-07T04:39:38;89603.00;;;4.85;91.50
22649;BME280;11491;41.942;24.220;2024-03-07T04:42:06;89607.31;;;4.99;91.60
22649;BME280;11491;41.942;24.220;2024-03-07T04:44:34;89592.69;;;4.92;90.79
22649;BME280;11491;41.942;24.220;2024-03-07T04:47:02;89603.13;;;4.97;90.70
22649;BME280;11491;41.942;24.220;2024-03-07T04:49:30;89588.94;;;4.93;90.94
22649;BME280;11491;41.942;24.220;2024-03-07T04:51:58;89600.00;;;4.87;91.16
22649;BME280;11491;41.942;24.220;2024-03-07T04:54:26;89598.59;;;4.89;91.84
22649;BME280;11491;41.942;24.220;2024-03-07T04:56:54;89596.88;;;4.93;91.01
22649;BME280;11491;41.942;24.220;2024-03-07T04:59:21;89612.59;;;4.99;90.95
22649;BME280;11491;41.942;24.220;2024-03-07T05:01:49;89621.50;;;4.94;91.12
22649;BME280;11491;41.942;24.220;2024-03-07T05:04:17;89598.59;;;4.89;91.16
22649;BME280;11491;41.942;24.220;2024-03-07T05:06:44;89616.34;;;4.97;91.54
22649;BME280;11491;41.942;24.220;2024-03-07T05:09:13;89618.53;;;4.95;91.55
22649;BME280;11491;41.942;24.220;2024-03-07T05:11:48;89622.13;;;5.00;91.38
22649;BME280;11491;41.942;24.220;2024-03-07T05:14:18;89620.38;;;5.04;90.78
22649;BME280;11491;41.942;24.220;2024-03-07T05:16:45;89632.59;;;4.87;91.69
22649;BME280;11491;41.942;24.220;2024-03-07T05:19:27;89630.38;;;4.89;91.84
22649;BME280;11491;41.942;24.220;2024-03-07T05:21:54;89638.47;;;5.02;91.62
22649;BME280;11491;41.942;24.220;2024-03-07T05:24:21;89639.41;;;5.06;90.87
22649;BME280;11491;41.942;24.220;2024-03-07T05:26:48;89645.16;;;5.08;91.52
22649;BME280;11491;41.942;24.220;2024-03-07T05:29:14;89649.19;;;5.14;90.78
22649;BME280;11491;41.942;24.220;2024-03-07T05:31:44;89651.53;;;5.24;91.44
22649;BME280;11491;41.942;24.220;2024-03-07T05:34:12;89652.13;;;5.21;91.34
22649;BME280;11491;41.942;24.220;2024-03-07T05:36:40;89663.03;;;5.28;91.42
22649;BME280;11491;41.942;24.220;2024-03-07T05:39:09;89666.63;;;5.32;91.73
22649;BME280;11491;41.942;24.220;2024-03-07T05:41:36;89667.09;;;5.34;91.17
22649;BME280;11491;41.942;24.220;2024-03-07T05:44:04;89665.03;;;5.40;91.31
22649;BME280;11491;41.942;24.220;2024-03-07T05:46:33;89667.50;;;5.36;90.88
22649;BME280;11491;41.942;24.220;2024-03-07T05:49:02;89665.31;;;5.47;91.17
22649;BME280;11491;41.942;24.220;2024-03-07T05:51:29;89665.63;;;5.46;91.02
22649;BME280;11491;41.942;24.220;2024-03-07T05:53:56;89675.88;;;5.56;91.24
22649;BME280;11491;41.942;24.220;2024-03-07T05:56:22;89677.28;;;5.53;91.16
22649;BME280;11491;41.942;24.220;2024-03-07T05:58:49;89671.69;;;5.55;91.77
22649;BME280;11491;41.942;24.220;2024-03-07T06:01:16;89671.03;;;5.58;92.02
22649;BME280;11491;41.942;24.220;2024-03-07T06:03:44;89666.50;;;5.58;92.51
22649;BME280;11491;41.942;24.220;2024-03-07T06:06:12;89665.72;;;5.58;92.77
22649;BME280;11491;41.942;24.220;2024-03-07T06:08:39;89673.50;;;5.63;92.88
22649;BME280;11491;41.942;24.220;2024-03-07T06:11:08;89672.25;;;5.69;93.20
22649;BME280;11491;41.942;24.220;2024-03-07T06:13:35;89668.97;;;5.72;92.60
22649;BME280;11491;41.942;24.220;2024-03-07T06:16:02;89675.63;;;5.78;92.36
22649;BME280;11491;41.942;24.220;2024-03-07T06:18:33;89671.72;;;5.85;92.34
22649;BME280;11491;41.942;24.220;2024-03-07T06:21:00;89669.06;;;5.85;92.32
22649;BME280;11491;41.942;24.220;2024-03-07T06:23:31;89673.59;;;5.84;92.20
22649;BME280;11491;41.942;24.220;2024-03-07T06:25:58;89673.72;;;5.88;92.69
22649;BME280;11491;41.942;24.220;2024-03-07T06:28:26;89667.75;;;5.91;92.42
22649;BME280;11491;41.942;24.220;2024-03-07T06:30:54;89665.22;;;6.03;92.02
22649;BME280;11491;41.942;24.220;2024-03-07T06:33:21;89657.34;;;6.15;92.46
22649;BME280;11491;41.942;24.220;2024-03-07T06:35:48;89648.31;;;6.16;92.07
22649;BME280;11491;41.942;24.220;2024-03-07T06:38:16;89648.13;;;6.21;91.41
22649;BME280;11491;41.942;24.220;2024-03-07T06:40:45;89640.78;;;6.18;91.93
22649;BME280;11491;41.942;24.220;2024-03-07T06:43:11;89634.19;;;6.24;92.54
22649;BME280;11491;41.942;24.220;2024-03-07T06:45:39;89643.69;;;6.25;92.73
22649;BME280;11491;41.942;24.220;2024-03-07T06:48:07;89639.13;;;6.35;92.11
22649;BME280;11491;41.942;24.220;2024-03-07T06:50:35;89634.97;;;6.46;93.33
22649;BME280;11491;41.942;24.220;2024-03-07T06:53:02;89629.13;;;6.74;93.82
22649;BME280;11491;41.942;24.220;2024-03-07T06:55:28;89625.56;;;7.03;92.86
22649;BME280;11491;41.942;24.220;2024-03-07T06:57:57;89617.50;;;7.11;90.13
22649;BME280;11491;41.942;24.220;2024-03-07T07:00:23;89625.25;;;7.17;88.59
22649;BME280;11491;41.942;24.220;2024-03-07T07:02:52;89613.31;;;7.10;85.84
22649;BME280;11491;41.942;24.220;2024-03-07T07:05:20;89630.59;;;7.17;84.27
22649;BME280;11491;41.942;24.220;2024-03-07T07:07:47;89622.41;;;7.22;85.81
22649;BME280;11491;41.942;24.220;2024-03-07T07:10:14;89632.56;;;7.20;84.20
22649;BME280;11491;41.942;24.220;2024-03-07T07:12:44;89639.47;;;7.21;83.73
22649;BME280;11491;41.942;24.220;2024-03-07T07:15:13;89642.22;;;7.24;83.27
22649;BME280;11491;41.942;24.220;2024-03-07T07:17:42;89633.50;;;7.36;82.13
22649;BME280;11491;41.942;24.220;2024-03-07T07:20:11;89641.50;;;7.48;81.17
22649;BME280;11491;41.942;24.220;2024-03-07T07:22:40;89643.28;;;7.57;82.38
22649;BME280;11491;41.942;24.220;2024-03-07T07:25:07;89647.41;;;7.66;85.63
22649;BME280;11491;41.942;24.220;2024-03-07T07:27:40;89650.31;;;7.86;87.45
22649;BME280;11491;41.942;24.220;2024-03-07T07:30:09;89657.63;;;8.01;86.07
22649;BME280;11491;41.942;24.220;2024-03-07T07:32:37;89660.72;;;7.79;84.78
22649;BME280;11491;41.942;24.220;2024-03-07T07:35:05;89654.13;;;7.39;82.40
22649;BME280;11491;41.942;24.220;2024-03-07T07:37:35;89670.94;;;6.98;84.23
22649;BME280;11491;41.942;24.220;2024-03-07T07:40:02;89674.59;;;6.72;83.56
22649;BME280;11491;41.942;24.220;2024-03-07T07:42:29;89661.63;;;6.71;83.83
22649;BME280;11491;41.942;24.220;2024-03-07T07:44:56;89669.03;;;6.86;83.35
22649;BME280;11491;41.942;24.220;2024-03-07T07:47:24;89668.69;;;7.08;84.51
22649;BME280;11491;41.942;24.220;2024-03-07T07:49:51;89665.00;;;7.01;87.15
22649;BME280;11491;41.942;24.220;2024-03-07T07:52:18;89675.06;;;7.07;88.03
22649;BME280;11491;41.942;24.220;2024-03-07T07:54:44;89673.88;;;7.17;89.74
22649;BME280;11491;41.942;24.220;2024-03-07T07:57:11;89678.97;;;7.43;90.59
22649;BME280;11491;41.942;24.220;2024-03-07T07:59:38;89674.56;;;7.84;91.00
22649;BME280;11491;41.942;24.220;2024-03-07T08:02:05;89675.47;;;8.13;88.36
22649;BME280;11491;41.942;24.220;2024-03-07T08:04:32;89676.13;;;8.22;85.41
22649;BME280;11491;41.942;24.220;2024-03-07T08:07:00;89678.16;;;8.25;83.68
22649;BME280;11491;41.942;24.220;2024-03-07T08:09:27;89675.72;;;8.20;84.27
22649;BME280;11491;41.942;24.220;2024-03-07T08:11:54;89681.56;;;8.38;84.66
22649;BME280;11491;41.942;24.220;2024-03-07T08:14:20;89663.22;;;8.61;85.57
22649;BME280;11491;41.942;24.220;2024-03-07T08:16:48;89671.63;;;8.88;84.16
22649;BME280;11491;41.942;24.220;2024-03-07T08:19:16;89672.38;;;9.16;82.52
22649;BME280;11491;41.942;24.220;2024-03-07T08:21:43;89671.13;;;9.54;80.58
22649;BME280;11491;41.942;24.220;2024-03-07T08:24:11;89665.59;;;9.79;80.20
22649;BME280;11491;41.942;24.220;2024-03-07T08:26:38;89676.47;;;9.86;81.04
22649;BME280;11491;41.942;24.220;2024-03-07T08:29:09;89669.75;;;10.24;78.15
22649;BME280;11491;41.942;24.220;2024-03-07T08:31:36;89676.66;;;10.25;76.72
22649;BME280;11491;41.942;24.220;2024-03-07T08:34:03;89676.47;;;10.18;77.44
22649;BME280;11491;41.942;24.220;2024-03-07T08:36:30;89672.69;;;10.19;77.08
22649;BME280;11491;41.942;24.220;2024-03-07T08:38:56;89680.88;;;10.10;77.10
22649;BME280;11491;41.942;24.220;2024-03-07T08:41:24;89675.13;;;9.92;76.93
22649;BME280;11491;41.942;24.220;2024-03-07T08:43:51;89685.16;;;9.67;77.68
22649;BME280;11491;41.942;24.220;2024-03-07T08:46:18;89686.50;;;9.45;78.34
22649;BME280;11491;41.942;24.220;2024-03-07T08:48:45;89701.31;;;9.14;79.28
22649;BME280;11491;41.942;24.220;2024-03-07T08:51:11;89704.78;;;9.02;79.80
22649;BME280;11491;41.942;24.220;2024-03-07T08:53:38;89718.72;;;8.71;79.47
22649;BME280;11491;41.942;24.220;2024-03-07T08:56:05;89744.81;;;7.46;75.75
22649;BME280;11491;41.942;24.220;2024-03-07T08:58:33;89737.97;;;6.61;77.04
22649;BME280;11491;41.942;24.220;2024-03-07T09:01:00;89744.72;;;5.99;78.67
22649;BME280;11491;41.942;24.220;2024-03-07T09:03:27;89742.81;;;5.53;81.36
22649;BME280;11491;41.942;24.220;2024-03-07T09:05:54;89743.97;;;5.26;82.09
22649;BME280;11491;41.942;24.220;2024-03-07T09:08:21;89763.16;;;5.14;84.98
22649;BME280;11491;41.942;24.220;2024-03-07T09:10:48;89762.81;;;4.54;84.07
22649;BME280;11491;41.942;24.220;2024-03-07T09:13:20;89774.25;;;4.06;85.70
22649;BME280;11491;41.942;24.220;2024-03-07T09:15:48;89775.56;;;4.18;87.23
22649;BME280;11491;41.942;24.220;2024-03-07T09:18:15;89773.88;;;4.30;86.81
22649;BME280;11491;41.942;24.220;2024-03-07T09:20:42;89779.34;;;4.51;87.78
22649;BME280;11491;41.942;24.220;2024-03-07T09:23:09;89776.25;;;4.67;87.58
22649;BME280;11491;41.942;24.220;2024-03-07T09:25:35;89777.81;;;4.85;86.89
22649;BME280;11491;41.942;24.220;2024-03-07T09:28:02;89773.75;;;4.96;87.44
22649;BME280;11491;41.942;24.220;2024-03-07T09:30:29;89783.44;;;5.10;90.20
22649;BME280;11491;41.942;24.220;2024-03-07T09:32:57;89794.66;;;5.24;89.99
22649;BME280;11491;41.942;24.220;2024-03-07T09:35:24;89789.19;;;5.21;90.18
22649;BME280;11491;41.942;24.220;2024-03-07T09:37:51;89792.44;;;5.26;91.07
22649;BME280;11491;41.942;24.220;2024-03-07T09:40:18;89789.03;;;5.34;90.39
22649;BME280;11491;41.942;24.220;2024-03-07T09:42:50;89790.44;;;5.23;89.50
22649;BME280;11491;41.942;24.220;2024-03-07T09:45:19;89792.91;;;5.28;89.53
22649;BME280;11491;41.942;24.220;2024-03-07T09:47:48;89797.00;;;5.34;89.57
22649;BME280;11491;41.942;24.220;2024-03-07T09:50:18;89801.97;;;5.45;88.29
22649;BME280;11491;41.942;24.220;2024-03-07T09:52:47;89800.06;;;5.36;88.09
22649;BME280;11491;41.942;24.220;2024-03-07T09:55:16;89808.66;;;5.33;87.59
22649;BME280;11491;41.942;24.220;2024-03-07T09:57:46;89801.19;;;5.35;87.41
22649;BME280;11491;41.942;24.220;2024-03-07T10:00:17;89796.81;;;5.39;87.60
22649;BME280;11491;41.942;24.220;2024-03-07T10:02:50;89800.72;;;5.33;85.48
22649;BME280;11491;41.942;24.220;2024-03-07T10:05:22;89798.38;;;5.40;85.64
22649;BME280;11491;41.942;24.220;2024-03-07T10:07:50;89801.03;;;5.32;85.94
22649;BME280;11491;41.942;24.220;2024-03-07T10:10:17;89805.84;;;5.38;86.35
22649;BME280;11491;41.942;24.220;2024-03-07T10:12:44;89789.16;;;5.38;86.16
22649;BME280;11491;41.942;24.220;2024-03-07T10:15:11;89795.72;;;5.40;86.42
22649;BME280;11491;41.942;24.220;2024-03-07T10:17:39;89792.91;;;5.28;86.28
22649;BME280;11491;41.942;24.220;2024-03-07T10:20:07;89780.31;;;5.25;86.22
22649;BME280;11491;41.942;24.220;2024-03-07T10:22:40;89772.97;;;5.31;86.45
22649;BME280;11491;41.942;24.220;2024-03-07T10:25:07;89763.59;;;5.33;86.34
22649;BME280;11491;41.942;24.220;2024-03-07T10:27:36;89747.22;;;5.31;85.54
22649;BME280;11491;41.942;24.220;2024-03-07T10:30:04;89743.78;;;5.39;85.26
22649;BME280;11491;41.942;24.220;2024-03-07T10:32:33;89749.56;;;5.33;84.72
22649;BME280;11491;41.942;24.220;2024-03-07T10:35:01;89758.75;;;5.35;84.19
22649;BME280;11491;41.942;24.220;2024-03-07T10:37:34;89769.38;;;5.35;83.59
22649;BME280;11491;41.942;24.220;2024-03-07T10:40:03;89771.88;;;5.23;83.24
22649;BME280;11491;41.942;24.220;2024-03-07T10:42:45;89777.19;;;5.23;83.75
22649;BME280;11491;41.942;24.220;2024-03-07T10:45:14;89772.81;;;5.27;83.73
22649;BME280;11491;41.942;24.220;2024-03-07T10:47:43;89769.69;;;5.25;84.12
22649;BME280;11491;41.942;24.220;2024-03-07T10:50:20;89774.69;;;5.35;85.14
22649;BME280;11491;41.942;24.220;2024-03-07T10:52:57;89771.22;;;5.44;85.64
22649;BME280;11491;41.942;24.220;2024-03-07T10:55:33;89764.66;;;5.50;86.49
22649;BME280;11491;41.942;24.220;2024-03-07T10:58:06;89756.84;;;5.62;86.60
22649;BME280;11491;41.942;24.220;2024-03-07T11:00:37;89748.06;;;5.70;87.22
22649;BME280;11491;41.942;24.220;2024-03-07T11:03:09;89753.03;;;5.80;87.82
22649;BME280;11491;41.942;24.220;2024-03-07T11:05:36;89759.91;;;5.81;86.32
22649;BME280;11491;41.942;24.220;2024-03-07T11:08:05;89754.88;;;5.89;86.17
22649;BME280;11491;41.942;24.220;2024-03-07T11:10:38;89744.88;;;5.86;85.54
22649;BME280;11491;41.942;24.220;2024-03-07T11:13:07;89743.94;;;5.99;86.10
22649;BME280;11491;41.942;24.220;2024-03-07T11:15:35;89744.22;;;6.06;85.68
22649;BME280;11491;41.942;24.220;2024-03-07T11:18:03;89741.72;;;6.01;84.74
22649;BME280;11491;41.942;24.220;2024-03-07T11:20:35;89732.31;;;6.12;86.06
22649;BME280;11491;41.942;24.220;2024-03-07T11:23:25;89737.91;;;6.19;85.54
22649;BME280;11491;41.942;24.220;2024-03-07T11:25:55;89736.78;;;6.29;84.29
22649;BME280;11491;41.942;24.220;2024-03-07T11:28:30;89726.81;;;6.47;85.43
22649;BME280;11491;41.942;24.220;2024-03-07T11:31:12;89734.22;;;6.62;82.95
22649;BME280;11491;41.942;24.220;2024-03-07T11:33:39;89699.59;;;6.50;82.90
22649;BME280;11491;41.942;24.220;2024-03-07T11:36:11;89709.78;;;6.48;82.49
22649;BME280;11491;41.942;24.220;2024-03-07T11:38:38;89710.13;;;6.67;83.01
22649;BME280;11491;41.942;24.220;2024-03-07T11:41:06;89707.38;;;6.97;83.04
22649;BME280;11491;41.942;24.220;2024-03-07T11:43:34;89699.97;;;7.24;82.04
22649;BME280;11491;41.942;24.220;2024-03-07T11:46:01;89682.25;;;7.40;81.94
22649;BME280;11491;41.942;24.220;2024-03-07T11:48:28;89691.28;;;7.60;79.94
22649;BME280;11491;41.942;24.220;2024-03-07T11:50:56;89684.13;;;7.73;80.80
22649;BME280;11491;41.942;24.220;2024-03-07T11:53:23;89693.56;;;7.83;79.27
22649;BME280;11491;41.942;24.220;2024-03-07T11:55:50;89683.47;;;8.01;76.24
22649;BME280;11491;41.942;24.220;2024-03-07T11:58:21;89691.47;;;8.13;76.24
22649;BME280;11491;41.942;24.220;2024-03-07T12:00:49;89684.47;;;8.33;78.01
22649;BME280;11491;41.942;24.220;2024-03-07T12:03:18;89686.06;;;8.74;71.63
22649;BME280;11491;41.942;24.220;2024-03-07T12:05:47;89690.25;;;9.00;68.67
22649;BME280;11491;41.942;24.220;2024-03-07T12:08:14;89694.44;;;9.57;73.69
22649;BME280;11491;41.942;24.220;2024-03-07T12:10:42;89682.16;;;10.00;71.08
22649;BME280;11491;41.942;24.220;2024-03-07T12:13:10;89684.75;;;10.44;70.51
22649;BME280;11491;41.942;24.220;2024-03-07T12:15:39;89684.16;;;10.86;67.30
22649;BME280;11491;41.942;24.220;2024-03-07T12:18:06;89677.53;;;10.99;65.73
22649;BME280;11491;41.942;24.220;2024-03-07T12:20:40;89672.56;;;11.17;60.93
22649;BME280;11491;41.942;24.220;2024-03-07T12:23:08;89683.34;;;11.21;63.50
22649;BME280;11491;41.942;24.220;2024-03-07T12:25:37;89681.78;;;11.20;61.76
22649;BME280;11491;41.942;24.220;2024-03-07T12:28:06;89675.94;;;11.34;66.21
22649;BME280;11491;41.942;24.220;2024-03-07T12:30:48;89668.63;;;11.50;64.99
22649;BME280;11491;41.942;24.220;2024-03-07T12:33:16;89671.63;;;11.10;65.38
22649;BME280;11491;41.942;24.220;2024-03-07T12:35:44;89674.03;;;11.15;68.20
22649;BME280;11491;41.942;24.220;2024-03-07T12:38:11;89670.91;;;11.71;67.52
22649;BME280;11491;41.942;24.220;2024-03-07T12:40:40;89675.38;;;12.06;64.42
22649;BME280;11491;41.942;24.220;2024-03-07T12:43:15;89674.28;;;11.88;60.63
22649;BME280;11491;41.942;24.220;2024-03-07T12:45:49;89666.84;;;11.58;62.56
22649;BME280;11491;41.942;24.220;2024-03-07T12:48:16;89664.38;;;11.30;62.26
22649;BME280;11491;41.942;24.220;2024-03-07T12:50:45;89661.50;;;10.99;66.74
22649;BME280;11491;41.942;24.220;2024-03-07T12:53:16;89665.56;;;11.13;66.78
22649;BME280;11491;41.942;24.220;2024-03-07T12:55:43;89658.53;;;11.43;67.88
22649;BME280;11491;41.942;24.220;2024-03-07T12:58:10;89661.50;;;11.81;66.46
22649;BME280;11491;41.942;24.220;2024-03-07T13:00:38;89658.19;;;12.34;66.21
22649;BME280;11491;41.942;24.220;2024-03-07T13:03:08;89658.69;;;12.96;64.21
22649;BME280;11491;41.942;24.220;2024-03-07T13:05:35;89655.38;;;13.33;61.92